createdAt,value
2023-02-02T00:00:27.365Z,82.62
2023-02-02T00:02:54.054Z,82.99
2023-02-02T00:05:20.974Z,82.94
2023-02-02T00:07:47.824Z,83.17
2023-02-02T00:10:14.540Z,82.98
2023-02-02T00:12:41.295Z,83.08
2023-02-02T00:15:08.429Z,83.38
2023-02-02T00:17:35.053Z,83.52
2023-02-02T00:20:03.186Z,83.34
2023-02-02T00:22:29.980Z,83.17
2023-02-02T00:24:56.637Z,83.31
2023-02-02T00:27:23.558Z,83.73
2023-02-02T00:29:53.720Z,83.39
2023-02-02T00:32:20.875Z,83.58
2023-02-02T00:34:47.761Z,83.56
2023-02-02T00:37:14.521Z,83.52
2023-02-02T00:39:41.377Z,83.70
2023-02-02T00:42:11.642Z,83.76
2023-02-02T00:44:56.757Z,83.62
2023-02-02T00:47:23.581Z,84.01
2023-02-02T00:49:50.383Z,84.00
2023-02-02T00:52:17.024Z,83.80
2023-02-02T00:54:43.994Z,83.75
2023-02-02T00:57:14.733Z,83.84
2023-02-02T00:59:42.451Z,83.94
2023-02-02T01:02:12.953Z,84.08
2023-02-02T01:04:40.206Z,83.89
2023-02-02T01:07:06.905Z,84.11
2023-02-02T01:09:33.639Z,84.10
2023-02-02T01:12:00.487Z,83.83
2023-02-02T01:14:27.497Z,84.02
2023-02-02T01:16:54.290Z,83.90
2023-02-02T01:19:21.162Z,83.93
2023-02-02T01:21:47.838Z,83.81
2023-02-02T01:24:14.761Z,83.74
2023-02-02T01:26:41.732Z,83.91
2023-02-02T01:29:08.743Z,84.08
2023-02-02T01:31:35.528Z,84.40
2023-02-02T01:34:03.120Z,84.30
2023-02-02T01:36:29.819Z,84.23
2023-02-02T01:38:56.679Z,84.14
2023-02-02T01:41:25.769Z,84.20
2023-02-02T01:44:04.577Z,84.22
2023-02-02T01:46:36.690Z,84.55
2023-02-02T01:49:03.377Z,84.36
2023-02-02T01:51:43.500Z,84.59
2023-02-02T01:54:15.314Z,84.67
2023-02-02T01:56:50.971Z,84.86
2023-02-02T01:59:18.738Z,84.83
2023-02-02T02:01:47.830Z,84.62
2023-02-02T02:04:15.499Z,84.76
2023-02-02T02:06:42.725Z,84.93
2023-02-02T02:09:09.378Z,85.04
2023-02-02T02:11:36.562Z,84.78
2023-02-02T02:14:24.961Z,85.17
2023-02-02T02:17:00.698Z,85.41
2023-02-02T02:20:10.632Z,85.15
2023-02-02T02:23:24.208Z,85.10
2023-02-02T02:26:27.822Z,85.34
2023-02-02T02:29:04.816Z,85.57
2023-02-02T02:31:37.478Z,85.54
2023-02-02T02:34:10.358Z,85.41
2023-02-02T02:36:36.959Z,85.66
2023-02-02T02:39:13.251Z,85.94
2023-02-02T02:41:46.305Z,86.21
2023-02-02T02:44:16.345Z,86.11
2023-02-02T02:46:44.354Z,86.51
2023-02-02T02:49:12.201Z,86.62
2023-02-02T02:51:48.318Z,86.51
2023-02-02T02:54:22.345Z,87.14
2023-02-02T02:57:02.751Z,86.87
2023-02-02T02:59:55.810Z,87.03
2023-02-02T03:02:31.665Z,87.44
2023-02-02T03:04:58.265Z,87.48
2023-02-02T03:07:34.985Z,87.43
2023-02-02T03:10:05.307Z,87.65
2023-02-02T03:12:32.241Z,87.75
2023-02-02T03:14:59.029Z,87.86
2023-02-02T03:17:28.257Z,87.66
2023-02-02T03:19:54.922Z,87.87
2023-02-02T03:22:21.944Z,87.89
2023-02-02T03:24:48.586Z,87.54
2023-02-02T03:27:15.298Z,87.75
2023-02-02T03:29:42.185Z,87.82
2023-02-02T03:32:08.882Z,87.84
2023-02-02T03:34:35.550Z,87.98
2023-02-02T03:37:03.256Z,88.07
2023-02-02T03:39:29.931Z,87.70
2023-02-02T03:41:56.600Z,87.67
2023-02-02T03:44:23.695Z,88.37
2023-02-02T03:46:54.614Z,88.18
2023-02-02T03:49:22.000Z,88.24
2023-02-02T03:51:49.015Z,88.31
2023-02-02T03:54:15.761Z,88.11
2023-02-02T03:56:42.437Z,88.24
2023-02-02T03:59:09.301Z,88.58
2023-02-02T04:01:35.978Z,88.35
2023-02-02T04:04:02.633Z,88.15
2023-02-02T04:06:30.179Z,88.58
2023-02-02T04:08:56.885Z,88.37
2023-02-02T04:11:23.517Z,88.39
2023-02-02T04:13:50.783Z,88.61
2023-02-02T04:16:17.571Z,88.25
2023-02-02T04:18:44.252Z,88.34
2023-02-02T04:21:11.313Z,88.55
2023-02-02T04:23:38.098Z,88.49
2023-02-02T04:26:05.570Z,88.15
2023-02-02T04:28:32.454Z,88.27
2023-02-02T04:30:59.214Z,88.18
2023-02-02T04:33:27.810Z,88.37
2023-02-02T04:35:55.296Z,88.22
2023-02-02T04:38:22.305Z,88.47
2023-02-02T04:40:49.361Z,88.50
2023-02-02T04:43:16.534Z,88.26
2023-02-02T04:45:43.270Z,88.32
2023-02-02T04:48:10.171Z,88.25
2023-02-02T04:50:37.156Z,88.49
2023-02-02T04:53:04.926Z,88.53
2023-02-02T04:55:31.654Z,88.40
2023-02-02T04:57:58.911Z,88.54
2023-02-02T05:00:25.663Z,88.24
2023-02-02T05:02:52.356Z,88.60
2023-02-02T05:05:20.636Z,88.06
2023-02-02T05:07:47.481Z,88.46
2023-02-02T05:10:14.210Z,88.19
2023-02-02T05:12:41.240Z,88.10
2023-02-02T05:15:08.493Z,88.37
2023-02-02T05:17:35.134Z,88.10
2023-02-02T05:20:02.893Z,88.33
2023-02-02T05:22:29.556Z,88.12
2023-02-02T05:24:56.256Z,88.38
2023-02-02T05:27:23.218Z,88.10
2023-02-02T05:29:49.865Z,88.36
2023-02-02T05:32:16.553Z,88.05
2023-02-02T05:34:43.536Z,88.21
2023-02-02T05:37:10.285Z,87.89
2023-02-02T05:39:36.945Z,88.17
2023-02-02T05:42:04.089Z,88.01
2023-02-02T05:44:30.762Z,88.07
2023-02-02T05:46:57.445Z,88.27
2023-02-02T05:49:24.448Z,87.96
2023-02-02T05:51:55.390Z,88.03
2023-02-02T05:54:22.084Z,87.73
2023-02-02T05:56:51.074Z,87.63
2023-02-02T05:59:19.282Z,87.86
2023-02-02T06:01:46.428Z,87.80
2023-02-02T06:04:14.202Z,88.00
2023-02-02T06:06:41.585Z,87.69
2023-02-02T06:09:08.717Z,87.71
2023-02-02T06:11:35.740Z,87.94
2023-02-02T06:14:02.963Z,87.91
2023-02-02T06:16:29.619Z,87.63
2023-02-02T06:18:56.691Z,87.73
2023-02-02T06:21:24.895Z,87.84
2023-02-02T06:23:52.230Z,87.67
2023-02-02T06:26:19.624Z,87.45
2023-02-02T06:28:52.076Z,87.71
2023-02-02T06:31:19.647Z,87.69
2023-02-02T06:33:54.635Z,87.71
2023-02-02T06:36:21.566Z,87.85
2023-02-02T06:38:52.828Z,87.87
2023-02-02T06:41:20.643Z,87.63
2023-02-02T06:43:48.692Z,87.63
2023-02-02T06:46:15.557Z,87.81
2023-02-02T06:48:42.632Z,87.64
2023-02-02T06:51:09.290Z,87.80
2023-02-02T06:53:36.111Z,87.74
2023-02-02T06:56:07.220Z,87.66
2023-02-02T06:58:34.708Z,87.80
2023-02-02T07:01:07.450Z,88.00
2023-02-02T07:03:34.656Z,87.86
2023-02-02T07:06:14.558Z,87.76
2023-02-02T07:08:41.395Z,87.79
2023-02-02T07:11:13.277Z,87.91
2023-02-02T07:13:47.002Z,87.66
2023-02-02T07:16:14.757Z,87.62
2023-02-02T07:18:44.890Z,87.59
2023-02-02T07:21:21.084Z,87.66
2023-02-02T07:23:48.552Z,87.50
2023-02-02T07:26:16.783Z,87.21
2023-02-02T07:28:44.845Z,87.66
2023-02-02T07:31:20.903Z,87.33
2023-02-02T07:33:48.598Z,87.51
2023-02-02T07:36:18.163Z,87.52
2023-02-02T07:38:46.343Z,87.37
2023-02-02T07:41:14.573Z,87.33
2023-02-02T07:43:41.727Z,87.08
2023-02-02T07:46:10.335Z,87.09
2023-02-02T07:48:37.587Z,86.82
2023-02-02T07:51:07.503Z,86.81
2023-02-02T07:53:35.537Z,86.73
2023-02-02T07:56:11.086Z,86.38
2023-02-02T07:58:37.938Z,86.83
2023-02-02T08:01:07.248Z,86.94
2023-02-02T08:03:36.297Z,86.71
2023-02-02T08:06:17.921Z,86.78
2023-02-02T08:08:45.429Z,87.02
2023-02-02T08:11:14.179Z,87.09
2023-02-02T08:13:42.328Z,87.08
2023-02-02T08:16:10.595Z,86.98
2023-02-02T08:18:38.577Z,86.88
2023-02-02T08:21:08.449Z,86.85
2023-02-02T08:23:36.843Z,86.88
2023-02-02T08:26:11.595Z,86.64
2023-02-02T08:28:40.586Z,86.32
2023-02-02T08:31:10.275Z,86.38
2023-02-02T08:33:38.551Z,86.31
2023-02-02T08:36:08.614Z,86.11
2023-02-02T08:38:35.422Z,86.47
2023-02-02T08:41:06.648Z,86.08
2023-02-02T08:43:33.674Z,86.15
2023-02-02T08:46:05.244Z,86.07
2023-02-02T08:48:33.790Z,86.15
2023-02-02T08:51:01.232Z,85.93
2023-02-02T08:53:28.204Z,85.96
2023-02-02T08:56:06.892Z,85.66
2023-02-02T08:58:34.462Z,85.58
2023-02-02T09:01:15.012Z,85.70
2023-02-02T09:03:43.043Z,85.45
2023-02-02T09:06:17.739Z,85.22
2023-02-02T09:08:45.005Z,85.13
2023-02-02T09:11:17.232Z,85.20
2023-02-02T09:13:46.210Z,85.20
2023-02-02T09:16:14.631Z,84.86
2023-02-02T09:18:42.412Z,84.94
2023-02-02T09:21:11.426Z,84.34
2023-02-02T09:23:40.382Z,84.57
2023-02-02T09:26:21.764Z,84.31
2023-02-02T09:28:52.653Z,84.02
2023-02-02T09:31:19.541Z,84.26
2023-02-02T09:33:46.868Z,84.01
2023-02-02T09:36:24.890Z,83.81
2023-02-02T09:38:52.072Z,83.55
2023-02-02T09:41:36.775Z,83.51
2023-02-02T09:44:22.071Z,83.00
2023-02-02T09:47:12.651Z,82.98
2023-02-02T09:50:05.725Z,82.82
2023-02-02T09:52:48.946Z,83.14
2023-02-02T09:55:25.554Z,82.85
2023-02-02T09:57:59.223Z,82.58
2023-02-02T10:00:31.978Z,82.72
2023-02-02T10:03:22.327Z,82.76
2023-02-02T10:06:06.444Z,82.46
2023-02-02T10:08:45.818Z,82.46
2023-02-02T10:11:31.112Z,82.21
2023-02-02T10:14:05.505Z,82.16
2023-02-02T10:16:34.484Z,82.22
2023-02-02T10:19:13.888Z,81.93
2023-02-02T10:22:04.886Z,82.18
2023-02-02T10:24:32.829Z,82.06
2023-02-02T10:27:06.062Z,81.80
2023-02-02T10:30:00.347Z,81.67
2023-02-02T10:32:34.379Z,81.67
2023-02-02T10:35:13.583Z,81.51
2023-02-02T10:37:50.641Z,81.47
2023-02-02T10:40:54.983Z,81.50
2023-02-02T10:43:49.069Z,81.77
2023-02-02T10:46:15.749Z,81.46
2023-02-02T10:48:46.548Z,82.01
2023-02-02T10:51:28.397Z,82.03
2023-02-02T10:54:00.041Z,82.26
2023-02-02T10:56:36.717Z,82.54
2023-02-02T10:59:10.000Z,82.72
2023-02-02T11:01:37.012Z,83.23
2023-02-02T11:04:22.584Z,83.31
2023-02-02T11:06:52.479Z,83.70
2023-02-02T11:09:28.603Z,83.59
2023-02-02T11:12:02.923Z,84.01
2023-02-02T11:14:44.508Z,83.96
2023-02-02T11:17:23.855Z,84.21
2023-02-02T11:19:51.402Z,84.19
2023-02-02T11:22:28.785Z,84.39
2023-02-02T11:24:57.365Z,84.46
2023-02-02T11:27:33.459Z,84.41
2023-02-02T11:30:09.908Z,84.32
2023-02-02T11:32:38.029Z,84.17
2023-02-02T11:35:04.799Z,84.14
2023-02-02T11:37:33.957Z,83.94
2023-02-02T11:40:28.846Z,83.67
2023-02-02T11:42:57.869Z,83.38
2023-02-02T11:45:40.915Z,83.12
2023-02-02T11:48:16.589Z,83.01
2023-02-02T11:50:55.022Z,82.78
2023-02-02T11:53:26.836Z,82.59
2023-02-02T11:55:55.245Z,82.36
2023-02-02T11:58:27.782Z,82.11
2023-02-02T12:01:03.485Z,81.76
2023-02-02T12:03:31.989Z,81.98
2023-02-02T12:05:59.457Z,81.82
2023-02-02T12:08:26.273Z,81.68
2023-02-02T12:11:04.150Z,81.29
2023-02-02T12:13:57.005Z,80.94
2023-02-02T12:16:29.635Z,80.71
2023-02-02T12:19:18.192Z,80.72
2023-02-02T12:21:59.470Z,80.30
2023-02-02T12:24:36.399Z,80.23
2023-02-02T12:27:21.719Z,79.69
2023-02-02T12:30:00.788Z,78.95
2023-02-02T12:32:27.517Z,78.96
2023-02-02T12:35:02.858Z,78.31
2023-02-02T12:37:29.710Z,78.17
2023-02-02T12:40:17.422Z,78.09
2023-02-02T12:42:47.043Z,77.77
2023-02-02T12:45:51.773Z,77.66
2023-02-02T12:48:29.301Z,77.79
2023-02-02T12:51:33.420Z,77.38
2023-02-02T12:54:46.981Z,77.22
2023-02-02T12:57:20.469Z,77.51
2023-02-02T12:59:59.123Z,77.47
2023-02-02T13:02:53.447Z,77.05
2023-02-02T13:06:02.560Z,77.02
2023-02-02T13:08:48.195Z,77.20
2023-02-02T13:11:30.213Z,76.93
2023-02-02T13:14:09.741Z,76.60
2023-02-02T13:16:41.367Z,76.41
2023-02-02T13:19:14.471Z,76.23
2023-02-02T13:21:43.297Z,75.92
2023-02-02T13:24:16.080Z,75.74
2023-02-02T13:26:44.554Z,75.96
2023-02-02T13:29:11.289Z,75.98
2023-02-02T13:31:50.415Z,76.41
2023-02-02T13:34:41.314Z,76.05
2023-02-02T13:37:25.676Z,76.25
2023-02-02T13:40:01.146Z,76.07
2023-02-02T13:42:52.296Z,75.73
2023-02-02T13:45:43.424Z,75.54
2023-02-02T13:48:16.207Z,75.41
2023-02-02T13:51:01.793Z,75.51
2023-02-02T13:53:45.362Z,74.97
2023-02-02T13:56:28.693Z,75.29
2023-02-02T13:59:15.440Z,74.88
2023-02-02T14:01:48.207Z,74.80
2023-02-02T14:04:23.449Z,74.89
2023-02-02T14:07:06.521Z,74.76
2023-02-02T14:09:36.024Z,74.97
2023-02-02T14:12:09.502Z,75.13
2023-02-02T14:14:40.143Z,74.90
2023-02-02T14:17:35.577Z,75.29
2023-02-02T14:20:06.263Z,74.96
2023-02-02T14:22:40.941Z,75.11
2023-02-02T14:25:33.654Z,74.95
2023-02-02T14:28:09.767Z,74.73
2023-02-02T14:30:39.057Z,74.69
2023-02-02T14:33:20.824Z,74.75
2023-02-02T14:35:47.653Z,74.79
2023-02-02T14:38:37.300Z,74.90
2023-02-02T14:41:38.974Z,75.02
2023-02-02T14:44:06.843Z,75.61
2023-02-02T14:46:41.147Z,75.86
2023-02-02T14:49:13.556Z,76.20
2023-02-02T14:51:55.796Z,76.47
2023-02-02T14:54:30.729Z,77.15
2023-02-02T14:57:02.732Z,77.23
2023-02-02T14:59:40.409Z,77.44
2023-02-02T15:02:15.472Z,77.91
2023-02-02T15:04:42.670Z,78.31
2023-02-02T15:07:24.795Z,78.22
2023-02-02T15:09:58.265Z,78.58
2023-02-02T15:12:45.938Z,78.64
2023-02-02T15:15:18.578Z,78.46
2023-02-02T15:17:56.272Z,78.55
2023-02-02T15:20:29.815Z,78.32
2023-02-02T15:23:23.612Z,77.73
2023-02-02T15:26:07.749Z,77.25
2023-02-02T15:28:44.519Z,77.25
2023-02-02T15:31:11.232Z,77.03
2023-02-02T15:33:41.845Z,76.50
2023-02-02T15:36:14.436Z,75.95
2023-02-02T15:38:43.641Z,75.84
2023-02-02T15:41:20.381Z,75.38
2023-02-02T15:43:47.368Z,75.11
2023-02-02T15:46:24.522Z,74.58
2023-02-02T15:49:35.819Z,74.08
2023-02-02T15:52:29.879Z,73.68
2023-02-02T15:54:58.751Z,73.14
2023-02-02T15:57:34.340Z,72.75
2023-02-02T16:00:21.532Z,72.24
2023-02-02T16:02:53.584Z,72.10
2023-02-02T16:05:46.084Z,71.59
2023-02-02T16:08:24.731Z,71.46
2023-02-02T16:11:03.051Z,71.29
2023-02-02T16:13:30.264Z,71.41
2023-02-02T16:15:59.555Z,71.25
2023-02-02T16:18:26.491Z,70.85
2023-02-02T16:20:54.860Z,71.14
2023-02-02T16:23:35.448Z,70.99
2023-02-02T16:26:05.058Z,70.77
2023-02-02T16:28:32.565Z,70.97
2023-02-02T16:31:02.724Z,71.01
2023-02-02T16:33:44.581Z,70.92
2023-02-02T16:36:25.735Z,70.64
2023-02-02T16:38:54.815Z,70.95
2023-02-02T16:41:30.756Z,70.75
2023-02-02T16:44:31.125Z,70.73
2023-02-02T16:46:58.977Z,70.96
2023-02-02T16:49:27.147Z,70.66
2023-02-02T16:52:13.596Z,70.98
2023-02-02T16:54:45.511Z,70.88
2023-02-02T16:57:19.688Z,70.83
2023-02-02T16:59:52.968Z,71.29
2023-02-02T17:02:28.856Z,71.55
2023-02-02T17:05:05.042Z,71.75
2023-02-02T17:07:33.761Z,71.76
2023-02-02T17:10:25.538Z,71.97
2023-02-02T17:12:52.937Z,72.18
2023-02-02T17:15:19.634Z,72.21
2023-02-02T17:17:48.510Z,72.74
2023-02-02T17:20:19.575Z,72.75
2023-02-02T17:22:52.444Z,73.09
2023-02-02T17:25:30.679Z,72.86
2023-02-02T17:27:59.228Z,72.91
2023-02-02T17:30:26.633Z,73.47
2023-02-02T17:32:53.441Z,73.35
2023-02-02T17:35:23.768Z,73.47
2023-02-02T17:37:52.728Z,73.76
2023-02-02T17:40:21.966Z,74.12
2023-02-02T17:42:51.779Z,74.40
2023-02-02T17:45:31.720Z,75.24
2023-02-02T17:48:00.522Z,75.24
2023-02-02T17:50:28.603Z,75.88
2023-02-02T17:52:55.890Z,76.09
2023-02-02T17:55:33.071Z,76.80
2023-02-02T17:58:00.136Z,76.97
2023-02-02T18:00:30.690Z,77.30
2023-02-02T18:03:10.964Z,77.66
2023-02-02T18:05:38.269Z,77.92
2023-02-02T18:08:05.392Z,78.13
2023-02-02T18:10:32.326Z,78.41
2023-02-02T18:12:59.020Z,78.25
2023-02-02T18:15:25.971Z,78.43
2023-02-02T18:17:53.080Z,78.49
2023-02-02T18:20:20.701Z,79.08
2023-02-02T18:22:48.686Z,78.98
2023-02-02T18:25:15.620Z,78.92
2023-02-02T18:27:42.444Z,78.91
2023-02-02T18:30:10.120Z,78.95
2023-02-02T18:32:38.856Z,78.78
2023-02-02T18:35:07.685Z,79.13
2023-02-02T18:37:35.543Z,79.04
2023-02-02T18:40:03.219Z,78.89
2023-02-02T18:42:32.264Z,78.94
2023-02-02T18:44:59.875Z,79.06
2023-02-02T18:47:27.512Z,78.91
2023-02-02T18:49:54.469Z,78.87
2023-02-02T18:52:21.215Z,79.22
2023-02-02T18:54:48.335Z,79.36
2023-02-02T18:57:15.598Z,79.50
2023-02-02T18:59:43.112Z,80.20
2023-02-02T19:02:19.286Z,80.26
2023-02-02T19:05:04.933Z,80.59
2023-02-02T19:07:51.099Z,80.91
2023-02-02T19:10:18.729Z,80.79
2023-02-02T19:13:11.773Z,81.05
2023-02-02T19:15:41.692Z,80.96
2023-02-02T19:18:18.290Z,81.11
2023-02-02T19:20:45.251Z,81.55
2023-02-02T19:23:23.866Z,81.27
2023-02-02T19:25:54.214Z,81.61
2023-02-02T19:28:31.442Z,81.72
2023-02-02T19:31:02.573Z,81.67
2023-02-02T19:33:41.552Z,81.38
2023-02-02T19:36:21.341Z,81.59
2023-02-02T19:38:49.817Z,81.46
2023-02-02T19:41:25.086Z,81.48
2023-02-02T19:43:58.621Z,81.74
2023-02-02T19:46:27.268Z,81.68
2023-02-02T19:49:17.036Z,82.23
2023-02-02T19:51:46.355Z,82.21
2023-02-02T19:54:22.334Z,82.41
2023-02-02T19:56:52.207Z,82.94
2023-02-02T19:59:20.986Z,82.82
2023-02-02T20:01:50.741Z,83.38
2023-02-02T20:04:19.767Z,83.22
2023-02-02T20:06:58.538Z,83.37
2023-02-02T20:09:33.787Z,83.78
2023-02-02T20:12:00.616Z,83.55
2023-02-02T20:14:33.488Z,83.94
2023-02-02T20:17:01.221Z,84.02
2023-02-02T20:19:33.442Z,84.03
2023-02-02T20:22:00.227Z,83.89
2023-02-02T20:24:37.278Z,84.09
2023-02-02T20:27:39.565Z,83.86
2023-02-02T20:30:25.845Z,84.03
2023-02-02T20:32:56.300Z,83.79
2023-02-02T20:35:24.892Z,83.81
2023-02-02T20:37:51.830Z,83.82
2023-02-02T20:40:21.780Z,83.89
2023-02-02T20:42:50.462Z,83.49
2023-02-02T20:45:18.190Z,83.70
2023-02-02T20:47:46.034Z,83.75
2023-02-02T20:50:14.759Z,83.52
2023-02-02T20:52:42.362Z,83.62
2023-02-02T20:55:09.783Z,83.02
2023-02-02T20:57:38.634Z,83.35
2023-02-02T21:00:08.199Z,83.45
2023-02-02T21:02:35.150Z,83.25
2023-02-02T21:05:01.856Z,83.13
2023-02-02T21:07:28.904Z,83.36
2023-02-02T21:09:55.714Z,83.44
2023-02-02T21:12:25.607Z,83.39
2023-02-02T21:14:55.865Z,83.24
2023-02-02T21:17:22.808Z,83.33
2023-02-02T21:19:49.750Z,83.11
2023-02-02T21:22:16.772Z,83.29
2023-02-02T21:24:43.527Z,83.20
2023-02-02T21:27:10.372Z,82.83
2023-02-02T21:29:37.591Z,83.23
2023-02-02T21:32:05.302Z,83.27
2023-02-02T21:34:32.112Z,83.08
2023-02-02T21:36:59.385Z,83.18
2023-02-02T21:39:34.773Z,83.07
2023-02-02T21:42:07.705Z,83.37
2023-02-02T21:44:40.731Z,83.65
2023-02-02T21:47:28.040Z,83.55
2023-02-02T21:49:57.102Z,83.69
2023-02-02T21:52:24.793Z,83.70
2023-02-02T21:54:51.598Z,83.55
2023-02-02T21:57:21.870Z,83.77
2023-02-02T21:59:56.561Z,83.82
2023-02-02T22:02:43.340Z,83.77
2023-02-02T22:05:14.353Z,83.58
2023-02-02T22:07:44.629Z,83.47
2023-02-02T22:10:42.884Z,83.67
2023-02-02T22:13:20.064Z,83.53
2023-02-02T22:15:49.374Z,83.54
2023-02-02T22:18:21.988Z,83.44
2023-02-02T22:20:50.886Z,83.02
2023-02-02T22:23:27.318Z,83.25
2023-02-02T22:25:58.708Z,82.85
2023-02-02T22:28:28.171Z,83.07
2023-02-02T22:30:56.150Z,82.90
2023-02-02T22:33:23.621Z,82.63
2023-02-02T22:35:50.730Z,82.66
2023-02-02T22:38:20.172Z,82.73
2023-02-02T22:40:48.653Z,82.63
2023-02-02T22:43:19.264Z,82.60
2023-02-02T22:45:47.136Z,82.28
2023-02-02T22:48:15.673Z,82.46
2023-02-02T22:50:43.200Z,82.27
2023-02-02T22:53:10.185Z,82.37
2023-02-02T22:55:36.998Z,81.92
2023-02-02T22:58:03.764Z,82.09
2023-02-02T23:00:33.179Z,82.35
2023-02-02T23:03:00.371Z,82.12
2023-02-02T23:05:27.897Z,81.83
2023-02-02T23:07:54.944Z,81.77
2023-02-02T23:10:25.185Z,81.61
2023-02-02T23:12:54.996Z,81.51
2023-02-02T23:15:21.956Z,81.72
2023-02-02T23:17:48.963Z,81.82
2023-02-02T23:20:16.076Z,81.49
2023-02-02T23:22:43.134Z,81.46
2023-02-02T23:25:10.816Z,81.19
2023-02-02T23:27:38.529Z,81.20
2023-02-02T23:30:07.481Z,81.04
2023-02-02T23:32:34.904Z,81.28
2023-02-02T23:35:02.543Z,81.17
2023-02-02T23:37:29.200Z,80.76
2023-02-02T23:39:55.904Z,80.86
2023-02-02T23:42:22.916Z,81.08
2023-02-02T23:44:49.608Z,80.88
2023-02-02T23:47:16.505Z,80.86
2023-02-02T23:49:44.045Z,81.09
2023-02-02T23:52:11.370Z,81.18
2023-02-02T23:54:38.238Z,81.02
2023-02-02T23:57:05.737Z,80.87
2023-02-02T23:59:32.393Z,80.93
